Time;durP1;ratioP1;P1;durP2;ratioP2;P2;SDS_P1;SDS_P2;PMS_P1;PMS_P2;Temp;Humidity;BMP_temperature;BMP_pressure;BME280_temperature;BME280_humidity;BME280_pressure;Samples;Min_cycle;Max_cycle;Signal;HPM_P1;HPM_P2
2023/06/16 00:02:27;;;;;;;;;;;;;;;17.77;100.00;99260.94;5014843;28;819;-57
2023/06/16 00:04:53;;;;;;;;;;;;;;;17.80;100.00;99256.47;5014677;28;1890;-57
2023/06/16 00:07:20;;;;;;;;;;;;;;;17.83;100.00;99259.13;5014698;28;827;-58
2023/06/16 00:09:47;;;;;;;;;;;;;;;17.89;100.00;99262.06;5014614;28;979;-57
2023/06/16 00:12:14;;;;;;;;;;;;;;;17.96;100.00;99261.75;5014350;28;1186;-57
2023/06/16 00:14:40;;;;;;;;;;;;;;;18.01;100.00;99265.94;5014517;28;878;-57
2023/06/16 00:17:08;;;;;;;;;;;;;;;18.08;100.00;99271.25;4997034;28;898;-57
2023/06/16 00:19:35;;;;;;;;;;;;;;;18.18;100.00;99270.00;5014450;28;823;-58
2023/06/16 00:22:03;;;;;;;;;;;;;;;18.28;100.00;99273.53;5014390;28;866;-56
2023/06/16 00:24:30;;;;;;;;;;;;;;;18.29;100.00;99270.28;5014568;28;1915;-57
2023/06/16 00:26:56;;;;;;;;;;;;;;;18.29;100.00;99273.09;5014188;28;815;-57
2023/06/16 00:29:23;;;;;;;;;;;;;;;18.29;100.00;99267.50;5014256;28;839;-57
2023/06/16 00:31:50;;;;;;;;;;;;;;;18.28;100.00;99265.16;5014240;28;855;-57
2023/06/16 00:34:17;;;;;;;;;;;;;;;18.21;100.00;99259.88;5014111;28;846;-57
2023/06/16 00:36:43;;;;;;;;;;;;;;;18.13;100.00;99249.00;5014190;28;807;-57
2023/06/16 00:39:10;;;;;;;;;;;;;;;18.09;100.00;99256.81;5014045;28;854;-57
2023/06/16 00:41:37;;;;;;;;;;;;;;;18.06;100.00;99257.72;5014072;28;830;-56
2023/06/16 00:44:03;;;;;;;;;;;;;;;18.07;100.00;99262.09;4996307;28;1489;-57
2023/06/16 00:46:33;;;;;;;;;;;;;;;18.14;100.00;99253.38;5014122;28;1882;-57
2023/06/16 00:49:00;;;;;;;;;;;;;;;18.19;100.00;99256.78;5013918;28;815;-57
2023/06/16 00:51:28;;;;;;;;;;;;;;;18.19;100.00;99254.75;5013875;28;902;-57
2023/06/16 00:53:55;;;;;;;;;;;;;;;18.21;100.00;99254.28;5013858;28;870;-57
2023/06/16 00:56:24;;;;;;;;;;;;;;;18.19;100.00;99254.00;5013637;28;803;-57
2023/06/16 00:58:51;;;;;;;;;;;;;;;18.16;100.00;99250.09;5013934;28;846;-56
2023/06/16 01:01:24;;;;;;;;;;;;;;;18.12;100.00;99238.31;5013553;28;926;-57
2023/06/16 01:03:52;;;;;;;;;;;;;;;18.10;100.00;99240.78;5013686;28;827;-57
2023/06/16 01:06:28;;;;;;;;;;;;;;;18.07;100.00;99241.72;5013480;28;1940;-57
2023/06/16 01:09:16;;;;;;;;;;;;;;;18.07;100.00;99239.72;5013559;28;897;-58
2023/06/16 01:11:48;;;;;;;;;;;;;;;18.06;100.00;99237.38;5013422;28;1344;-57
2023/06/16 01:14:37;;;;;;;;;;;;;;;18.04;100.00;99237.06;5013452;28;862;-57
2023/06/16 01:17:05;;;;;;;;;;;;;;;18.00;100.00;99237.22;5013942;28;846;-57
2023/06/16 01:19:37;;;;;;;;;;;;;;;17.98;100.00;99231.31;5013645;28;863;-57
2023/06/16 01:22:12;;;;;;;;;;;;;;;17.96;100.00;99231.00;5013644;28;846;-58
2023/06/16 01:24:42;;;;;;;;;;;;;;;17.93;100.00;99224.34;5013390;28;1976;-57
2023/06/16 01:27:10;;;;;;;;;;;;;;;17.91;100.00;99220.47;5012611;28;819;-57
2023/06/16 01:29:37;;;;;;;;;;;;;;;17.89;100.00;99223.72;5013108;28;881;-57
2023/06/16 01:32:05;;;;;;;;;;;;;;;17.88;100.00;99222.16;5013111;28;812;-56
2023/06/16 01:34:33;;;;;;;;;;;;;;;17.90;100.00;99222.47;5013060;28;878;-57
2023/06/16 01:37:00;;;;;;;;;;;;;;;17.90;100.00;99222.47;5012996;28;811;-58
2023/06/16 01:39:27;;;;;;;;;;;;;;;17.91;100.00;99217.66;5012986;28;803;-57
2023/06/16 01:41:54;;;;;;;;;;;;;;;17.92;100.00;99213.59;5012867;28;863;-57
2023/06/16 01:44:21;;;;;;;;;;;;;;;17.93;100.00;99215.19;5013085;28;1897;-57
2023/06/16 01:46:48;;;;;;;;;;;;;;;17.93;100.00;99212.38;5012803;28;858;-57
2023/06/16 01:49:15;;;;;;;;;;;;;;;17.92;100.00;99210.81;5012756;28;843;-56
2023/06/16 01:51:41;;;;;;;;;;;;;;;17.92;100.00;99208.03;5012700;28;807;-57
2023/06/16 01:54:08;;;;;;;;;;;;;;;17.91;100.00;99212.06;5012694;28;799;-57
2023/06/16 01:56:35;;;;;;;;;;;;;;;17.91;100.00;99204.44;5012587;28;877;-57
2023/06/16 01:59:01;;;;;;;;;;;;;;;17.89;100.00;99211.75;5012643;28;870;-57
2023/06/16 02:01:37;;;;;;;;;;;;;;;17.88;100.00;99210.19;5012503;28;930;-57
2023/06/16 02:04:14;;;;;;;;;;;;;;;17.87;100.00;99205.84;5012562;28;803;-57
2023/06/16 02:06:45;;;;;;;;;;;;;;;17.87;100.00;99206.63;5012498;28;858;-57
2023/06/16 02:09:13;;;;;;;;;;;;;;;17.88;100.00;99210.19;4994777;28;1317;-57
2023/06/16 02:11:40;;;;;;;;;;;;;;;17.85;100.00;99206.31;5012215;28;1384;-57
2023/06/16 02:14:07;;;;;;;;;;;;;;;17.83;100.00;99206.00;5013036;28;763;-57
2023/06/16 02:16:37;;;;;;;;;;;;;;;17.84;100.00;99209.59;5012408;28;827;-57
2023/06/16 02:19:04;;;;;;;;;;;;;;;17.83;100.00;99205.25;5012388;28;838;-57
2023/06/16 02:21:31;;;;;;;;;;;;;;;17.82;100.00;99196.09;5012255;28;866;-57
2023/06/16 02:23:58;;;;;;;;;;;;;;;17.81;100.00;99205.66;5012316;28;874;-57
2023/06/16 02:26:25;;;;;;;;;;;;;;;17.79;100.00;99205.34;5012039;28;1910;-57
2023/06/16 02:28:52;;;;;;;;;;;;;;;17.79;100.00;99205.34;5012367;28;878;-57
2023/06/16 02:31:19;;;;;;;;;;;;;;;17.76;100.00;99209.09;5012077;28;878;-57
2023/06/16 02:33:48;;;;;;;;;;;;;;;17.71;100.00;99210.50;5012071;28;854;-57
2023/06/16 02:36:16;;;;;;;;;;;;;;;17.68;100.00;99208.63;5012127;28;883;-57
2023/06/16 02:38:42;;;;;;;;;;;;;;;17.65;100.00;99212.34;5011199;28;839;-58
2023/06/16 02:41:09;;;;;;;;;;;;;;;17.59;100.00;99208.63;5012009;28;910;-56
2023/06/16 02:43:36;;;;;;;;;;;;;;;17.51;100.00;99204.59;5011798;28;907;-58
2023/06/16 02:46:03;;;;;;;;;;;;;;;17.41;100.00;99212.19;5011950;28;1882;-57
2023/06/16 02:48:30;;;;;;;;;;;;;;;17.30;100.00;99215.44;5011838;28;918;-58
2023/06/16 02:50:56;;;;;;;;;;;;;;;17.21;100.00;99218.19;5011980;28;827;-57
2023/06/16 02:53:24;;;;;;;;;;;;;;;17.18;100.00;99219.13;5011959;28;849;-57
2023/06/16 02:55:51;;;;;;;;;;;;;;;17.18;100.00;99215.56;5011706;28;823;-58
2023/06/16 02:58:18;;;;;;;;;;;;;;;17.19;100.00;99198.34;5011860;28;883;-57
2023/06/16 03:00:45;;;;;;;;;;;;;;;17.21;100.00;99190.28;5011722;28;802;-57
2023/06/16 03:03:11;;;;;;;;;;;;;;;17.21;100.00;99186.72;5011840;28;799;-58
2023/06/16 03:05:38;;;;;;;;;;;;;;;17.20;100.00;99188.72;5011782;28;1951;-57
2023/06/16 03:08:06;;;;;;;;;;;;;;;17.22;100.00;99193.84;5011714;28;862;-58
2023/06/16 03:10:32;;;;;;;;;;;;;;;17.27;100.00;99194.00;5011974;28;1044;-57
2023/06/16 03:12:59;;;;;;;;;;;;;;;17.39;100.00;99197.13;5011499;28;1237;-57
2023/06/16 03:15:27;;;;;;;;;;;;;;;17.51;100.00;99191.38;5011671;28;858;-57
2023/06/16 03:17:53;;;;;;;;;;;;;;;17.67;100.00;99193.09;5011726;28;815;-57
2023/06/16 03:20:21;;;;;;;;;;;;;;;17.88;100.00;99194.22;5011599;28;935;-57
2023/06/16 03:22:47;;;;;;;;;;;;;;;18.06;100.00;99185.03;5011572;28;811;-57
2023/06/16 03:25:15;;;;;;;;;;;;;;;18.23;100.00;99177.06;5011686;28;1977;-57
2023/06/16 03:27:41;;;;;;;;;;;;;;;18.42;100.00;99172.19;5011506;28;847;-56
2023/06/16 03:30:08;;;;;;;;;;;;;;;18.65;100.00;99167.91;5011529;28;997;-57
2023/06/16 03:32:37;;;;;;;;;;;;;;;18.88;100.00;99174.03;5011454;28;826;-57
2023/06/16 03:35:04;;;;;;;;;;;;;;;19.12;100.00;99182.47;5011652;28;823;-57
2023/06/16 03:37:31;;;;;;;;;;;;;;;19.27;100.00;99176.91;5011439;28;859;-57
2023/06/16 03:40:05;;;;;;;;;;;;;;;19.35;100.00;99183.69;5011290;28;897;-57
2023/06/16 03:42:32;;;;;;;;;;;;;;;19.34;100.00;99182.91;5011400;28;839;-57
2023/06/16 03:45:00;;;;;;;;;;;;;;;19.15;100.00;99178.69;5011331;28;1943;-56
2023/06/16 03:47:27;;;;;;;;;;;;;;;18.88;100.00;99180.41;5011340;28;886;-57
2023/06/16 03:49:54;;;;;;;;;;;;;;;18.71;100.00;99187.59;5011870;28;838;-57
2023/06/16 03:52:21;;;;;;;;;;;;;;;18.55;100.00;99181.16;5014978;28;850;-57
2023/06/16 03:54:48;;;;;;;;;;;;;;;18.47;100.00;99191.13;5014874;28;890;-57
2023/06/16 03:57:15;;;;;;;;;;;;;;;18.44;100.00;99180.88;5014949;28;852;-57
2023/06/16 03:59:41;;;;;;;;;;;;;;;18.41;100.00;99179.00;5014891;28;866;-57
2023/06/16 04:02:08;;;;;;;;;;;;;;;18.38;100.00;99171.56;5015051;28;807;-57
2023/06/16 04:04:35;;;;;;;;;;;;;;;18.38;100.00;99165.22;5014987;28;1953;-57
2023/06/16 04:07:02;;;;;;;;;;;;;;;18.40;100.00;99163.47;5014677;28;818;-57
2023/06/16 04:09:32;;;;;;;;;;;;;;;18.40;100.00;99163.47;5014716;28;866;-57
2023/06/16 04:11:59;;;;;;;;;;;;;;;18.37;100.00;99156.06;5014616;28;1199;-57
2023/06/16 04:14:25;;;;;;;;;;;;;;;18.44;100.00;99158.50;5014595;28;827;-56
2023/06/16 04:16:52;;;;;;;;;;;;;;;18.53;100.00;99161.25;5014502;28;831;-56
2023/06/16 04:19:19;;;;;;;;;;;;;;;18.61;100.00;99160.94;5014487;28;840;-57
2023/06/16 04:21:46;;;;;;;;;;;;;;;18.67;100.00;99159.81;5014386;28;872;-56
2023/06/16 04:24:14;;;;;;;;;;;;;;;18.77;100.00;99161.28;5014332;28;819;-57
2023/06/16 04:26:45;;;;;;;;;;;;;;;18.82;100.00;99162.72;5014472;28;898;-57
2023/06/16 04:29:14;;;;;;;;;;;;;;;18.92;100.00;99157.81;5014294;28;803;-57
2023/06/16 04:31:42;;;;;;;;;;;;;;;19.06;100.00;99156.34;5014580;28;823;-57
2023/06/16 04:34:10;;;;;;;;;;;;;;;19.24;100.00;99161.81;5014629;28;886;-56
2023/06/16 04:36:41;;;;;;;;;;;;;;;19.44;100.00;99158.41;5014240;28;831;-57
2023/06/16 04:39:08;;;;;;;;;;;;;;;19.63;100.00;99164.66;5014182;28;819;-57
2023/06/16 04:41:35;;;;;;;;;;;;;;;19.77;100.00;99165.94;5014157;28;830;-57
2023/06/16 04:44:03;;;;;;;;;;;;;;;19.90;100.00;99165.66;5013956;28;882;-57
2023/06/16 04:46:29;;;;;;;;;;;;;;;20.05;100.00;99171.28;5013960;28;1882;-57
2023/06/16 04:48:56;;;;;;;;;;;;;;;20.14;100.00;99174.78;5013980;28;830;-57
2023/06/16 04:51:24;;;;;;;;;;;;;;;20.20;100.00;99183.28;5014011;28;874;-56
2023/06/16 04:53:50;;;;;;;;;;;;;;;20.23;100.00;99182.31;5013954;28;874;-57
2023/06/16 04:56:17;;;;;;;;;;;;;;;20.30;100.00;99186.78;5013818;28;830;-57
2023/06/16 04:58:44;;;;;;;;;;;;;;;20.37;100.00;99183.56;5013862;28;855;-57
2023/06/16 05:01:11;;;;;;;;;;;;;;;20.42;100.00;99182.09;5013432;28;894;-57
2023/06/16 05:03:38;;;;;;;;;;;;;;;20.47;100.00;99187.81;5013180;28;885;-57
2023/06/16 05:06:04;;;;;;;;;;;;;;;20.58;100.00;99182.41;5013511;28;1890;-57
2023/06/16 05:08:32;;;;;;;;;;;;;;;20.70;100.00;99180.56;5013595;28;850;-57
2023/06/16 05:11:01;;;;;;;;;;;;;;;20.79;100.00;99191.66;5013718;28;1006;-57
2023/06/16 05:13:29;;;;;;;;;;;;;;;20.87;100.00;99180.81;5013352;28;1490;-57
2023/06/16 05:15:56;;;;;;;;;;;;;;;20.99;100.00;99192.97;5013500;28;810;-57
2023/06/16 05:18:23;;;;;;;;;;;;;;;21.12;100.00;99187.81;5013405;28;811;-56
2023/06/16 05:20:50;;;;;;;;;;;;;;;21.19;100.00;99192.22;5013355;28;824;-57
2023/06/16 05:23:16;;;;;;;;;;;;;;;21.24;100.00;99190.75;5013146;28;811;-56
2023/06/16 05:25:45;;;;;;;;;;;;;;;21.25;100.00;99195.88;5013188;28;1914;-57
2023/06/16 05:28:11;;;;;;;;;;;;;;;21.26;100.00;99196.66;5013260;28;882;-56
2023/06/16 05:30:38;;;;;;;;;;;;;;;21.39;100.00;99195.03;5013082;28;864;-56
2023/06/16 05:33:04;;;;;;;;;;;;;;;21.47;100.00;99200.28;5013161;28;831;-57
2023/06/16 05:35:31;;;;;;;;;;;;;;;21.49;100.00;99198.50;5013061;28;859;-56
2023/06/16 05:37:58;;;;;;;;;;;;;;;21.55;100.00;99195.75;5012996;28;858;-56
2023/06/16 05:40:24;;;;;;;;;;;;;;;21.69;100.00;99200.53;5012995;28;811;-57
2023/06/16 05:42:51;;;;;;;;;;;;;;;21.84;100.00;99210.91;5012925;28;917;-55
2023/06/16 05:45:18;;;;;;;;;;;;;;;21.91;100.00;99200.03;5012883;28;1953;-56
2023/06/16 05:47:45;;;;;;;;;;;;;;;21.98;100.00;99196.75;5012876;28;846;-57
2023/06/16 05:50:11;;;;;;;;;;;;;;;22.11;100.00;99199.19;5012826;28;835;-56
2023/06/16 05:52:38;;;;;;;;;;;;;;;22.22;100.00;99198.50;5012639;28;887;-57
2023/06/16 05:55:05;;;;;;;;;;;;;;;22.29;100.00;99206.53;4995138;28;1305;-56
2023/06/16 05:57:32;;;;;;;;;;;;;;;22.38;100.00;99202.78;5012642;28;843;-57
2023/06/16 05:59:59;;;;;;;;;;;;;;;22.49;100.00;99199.28;5012618;28;925;-56
2023/06/16 06:02:26;;;;;;;;;;;;;;;22.65;100.00;99203.50;5012609;28;817;-54
2023/06/16 06:04:52;;;;;;;;;;;;;;;22.92;100.00;99207.81;5012552;28;1898;-56
2023/06/16 06:07:19;;;;;;;;;;;;;;;23.18;100.00;99202.09;5012460;28;893;-56
2023/06/16 06:09:46;;;;;;;;;;;;;;;23.48;100.00;99196.84;5012268;28;1060;-56
2023/06/16 06:12:12;;;;;;;;;;;;;;;23.69;100.00;99207.94;5012215;28;1231;-53
2023/06/16 06:14:39;;;;;;;;;;;;;;;24.31;100.00;99208.09;5012279;28;846;-56
2023/06/16 06:17:06;;;;;;;;;;;;;;;24.90;100.00;99209.13;5012338;28;800;-57
2023/06/16 06:19:33;;;;;;;;;;;;;;;25.37;100.00;99218.56;5012313;28;854;-56
2023/06/16 06:22:00;;;;;;;;;;;;;;;25.84;100.00;99207.28;5012197;28;803;-56
2023/06/16 06:24:26;;;;;;;;;;;;;;;26.17;100.00;99214.06;5012168;28;1918;-55
2023/06/16 06:26:54;;;;;;;;;;;;;;;26.44;100.00;99212.31;5012158;28;847;-53
2023/06/16 06:29:20;;;;;;;;;;;;;;;26.55;100.00;99205.78;5012136;28;812;-56
2023/06/16 06:31:47;;;;;;;;;;;;;;;26.76;100.00;99205.41;5012158;28;796;-55
2023/06/16 06:34:13;;;;;;;;;;;;;;;26.65;100.00;99203.41;5012108;28;847;-56
2023/06/16 06:36:40;;;;;;;;;;;;;;;26.72;100.00;99193.56;5012165;28;847;-56
2023/06/16 06:39:08;;;;;;;;;;;;;;;27.01;100.00;99189.94;5011986;28;885;-56
2023/06/16 06:41:36;;;;;;;;;;;;;;;27.90;100.00;99195.84;4994463;28;950;-56
2023/06/16 06:44:03;;;;;;;;;;;;;;;28.69;100.00;99183.25;5012008;28;795;-56
2023/06/16 06:46:30;;;;;;;;;;;;;;;29.09;100.00;99185.38;5011848;28;1941;-56
2023/06/16 06:48:57;;;;;;;;;;;;;;;28.79;100.00;99180.00;5011950;28;862;-56
2023/06/16 06:51:23;;;;;;;;;;;;;;;29.96;98.79;99178.16;5011784;28;866;-56
2023/06/16 06:53:52;;;;;;;;;;;;;;;31.21;91.66;99173.72;5011921;28;897;-57
2023/06/16 06:56:20;;;;;;;;;;;;;;;31.83;81.42;99169.06;5011827;28;835;-58
2023/06/16 06:58:47;;;;;;;;;;;;;;;31.47;76.66;99162.09;5011812;28;823;-57
2023/06/16 07:01:14;;;;;;;;;;;;;;;31.58;72.84;99166.72;5011809;28;807;-57
2023/06/16 07:03:40;;;;;;;;;;;;;;;31.51;70.74;99167.44;5011718;28;811;-58
2023/06/16 07:06:06;;;;;;;;;;;;;;;32.07;69.40;99151.44;5011832;28;1886;-57
2023/06/16 07:08:33;;;;;;;;;;;;;;;32.50;66.16;99155.47;5011702;28;850;-58
2023/06/16 07:11:00;;;;;;;;;;;;;;;31.48;67.16;99160.75;5011928;28;937;-57
2023/06/16 07:13:27;;;;;;;;;;;;;;;30.97;69.09;99163.50;5011431;28;1222;-57
2023/06/16 07:15:55;;;;;;;;;;;;;;;30.59;69.78;99161.88;5011685;28;827;-57
2023/06/16 07:18:22;;;;;;;;;;;;;;;30.43;70.35;99160.22;5011610;28;851;-57
2023/06/16 07:20:48;;;;;;;;;;;;;;;30.63;68.84;99159.44;5011763;28;815;-57
2023/06/16 07:23:15;;;;;;;;;;;;;;;30.42;70.03;99159.44;5011586;28;795;-57
2023/06/16 07:25:42;;;;;;;;;;;;;;;29.69;70.27;99158.28;5013474;28;1910;-57
2023/06/16 07:28:09;;;;;;;;;;;;;;;29.68;70.44;99151.84;5015444;28;819;-57
2023/06/16 07:30:37;;;;;;;;;;;;;;;30.27;69.23;99159.28;5015475;28;823;-57
2023/06/16 07:33:06;;;;;;;;;;;;;;;31.04;66.88;99163.53;5015388;28;885;-55
2023/06/16 07:35:33;;;;;;;;;;;;;;;31.67;64.27;99151.88;5015311;28;818;-57
2023/06/16 07:37:59;;;;;;;;;;;;;;;32.09;61.52;99153.72;5015325;28;862;-57
2023/06/16 07:40:26;;;;;;;;;;;;;;;31.96;61.06;99151.75;5015243;28;807;-56
2023/06/16 07:42:53;;;;;;;;;;;;;;;31.77;57.25;99160.66;5015086;28;918;-57
2023/06/16 07:45:20;;;;;;;;;;;;;;;32.25;54.95;99145.94;5015220;28;1906;-56
2023/06/16 07:47:48;;;;;;;;;;;;;;;32.21;50.92;99152.03;5015317;28;823;-57
2023/06/16 07:50:15;;;;;;;;;;;;;;;31.84;52.05;99156.31;5014929;28;970;-57
2023/06/16 07:52:42;;;;;;;;;;;;;;;32.09;52.10;99151.66;5015009;28;827;-57
2023/06/16 07:55:10;;;;;;;;;;;;;;;32.80;51.38;99158.94;5014993;28;799;-57
2023/06/16 07:57:38;;;;;;;;;;;;;;;33.11;43.99;99163.25;5014941;28;826;-57
2023/06/16 08:00:11;;;;;;;;;;;;;;;33.11;42.05;99160.41;5014807;28;839;-56
2023/06/16 08:02:38;;;;;;;;;;;;;;;33.54;40.76;99163.50;4997256;28;1516;-57
2023/06/16 08:05:05;;;;;;;;;;;;;;;33.52;40.94;99155.50;5014786;28;1902;-56
2023/06/16 08:07:32;;;;;;;;;;;;;;;33.39;40.98;99160.69;4997024;28;1349;-55
2023/06/16 08:09:59;;;;;;;;;;;;;;;33.39;40.43;99163.56;5014683;28;1090;-56
2023/06/16 08:12:26;;;;;;;;;;;;;;;32.39;42.04;99175.09;5014580;28;1314;-57
2023/06/16 08:14:54;;;;;;;;;;;;;;;31.91;42.36;99167.00;5014540;28;815;-56
2023/06/16 08:17:21;;;;;;;;;;;;;;;32.43;40.86;99164.03;5014865;28;887;-54
2023/06/16 08:19:48;;;;;;;;;;;;;;;33.51;39.82;99176.88;5014357;28;870;-54
2023/06/16 08:22:16;;;;;;;;;;;;;;;34.05;37.72;99179.50;5014501;28;858;-56
2023/06/16 08:24:43;;;;;;;;;;;;;;;34.26;36.11;99170.59;5014255;28;1910;-56
2023/06/16 08:27:11;;;;;;;;;;;;;;;33.41;37.68;99172.34;5014358;28;851;-56
2023/06/16 08:29:39;;;;;;;;;;;;;;;32.21;39.96;99166.31;5014219;28;1382;-57
2023/06/16 08:32:07;;;;;;;;;;;;;;;31.45;39.95;99167.63;5014605;28;815;-56
2023/06/16 08:34:33;;;;;;;;;;;;;;;30.64;42.72;99171.59;5014534;28;839;-57
2023/06/16 08:37:02;;;;;;;;;;;;;;;30.50;43.37;99170.94;5012855;28;818;-57
2023/06/16 08:39:29;;;;;;;;;;;;;;;30.89;42.80;99166.31;5014424;28;784;-56
2023/06/16 08:41:56;;;;;;;;;;;;;;;31.12;41.37;99175.78;5014358;28;835;-57
2023/06/16 08:44:24;;;;;;;;;;;;;;;31.39;41.42;99164.13;5014620;28;803;-57
2023/06/16 08:46:51;;;;;;;;;;;;;;;31.66;40.97;99158.91;5014193;28;858;-57
2023/06/16 08:49:18;;;;;;;;;;;;;;;32.11;40.61;99153.91;5014142;28;855;-57
2023/06/16 08:51:49;;;;;;;;;;;;;;;32.43;39.54;99147.66;5014031;28;798;-57
2023/06/16 08:54:18;;;;;;;;;;;;;;;32.73;39.16;99163.31;5013775;28;943;-57
2023/06/16 08:56:46;;;;;;;;;;;;;;;32.84;38.54;99165.00;5013842;28;846;-56
2023/06/16 08:59:15;;;;;;;;;;;;;;;32.52;38.82;99161.38;5013779;28;834;-56
2023/06/16 09:01:42;;;;;;;;;;;;;;;32.59;39.31;99157.03;5013760;28;850;-55
2023/06/16 09:04:09;;;;;;;;;;;;;;;32.37;37.78;99163.47;5013769;28;815;-57
2023/06/16 09:06:36;;;;;;;;;;;;;;;32.35;38.66;99152.63;5013645;28;1890;-55
2023/06/16 09:09:03;;;;;;;;;;;;;;;32.18;38.41;99150.31;5013504;28;882;-56
2023/06/16 09:11:31;;;;;;;;;;;;;;;31.97;39.21;99147.59;5013706;28;1154;-56
2023/06/16 09:13:57;;;;;;;;;;;;;;;31.52;39.41;99161.16;5013519;28;791;-57
2023/06/16 09:16:24;;;;;;;;;;;;;;;31.44;40.40;99159.59;5013504;28;836;-56
2023/06/16 09:18:51;;;;;;;;;;;;;;;31.66;39.39;99169.59;5013248;28;855;-56
2023/06/16 09:21:20;;;;;;;;;;;;;;;31.63;39.61;99170.72;5013411;28;910;-52
2023/06/16 09:23:55;;;;;;;;;;;;;;;31.24;40.82;99172.59;5013336;28;882;-55
2023/06/16 09:26:33;;;;;;;;;;;;;;;30.68;41.26;99181.34;5013533;28;1906;-57
2023/06/16 09:28:59;;;;;;;;;;;;;;;29.78;43.82;99174.94;5013244;28;838;-55
2023/06/16 09:31:29;;;;;;;;;;;;;;;29.67;45.08;99175.91;5013216;28;799;-56
2023/06/16 09:34:05;;;;;;;;;;;;;;;29.76;44.43;99182.50;5013118;28;906;-57
2023/06/16 09:36:32;;;;;;;;;;;;;;;29.82;44.11;99175.34;5013360;28;898;-56
2023/06/16 09:38:58;;;;;;;;;;;;;;;29.87;44.27;99180.19;5014149;28;767;-56
2023/06/16 10:12:27;;;;;;;;;;;;;;;28.03;48.73;99206.50;5135660;23;1500;-67
2023/06/16 10:27:08;;;;;;;;;;;;;;;29.63;47.13;99220.28;5012406;28;684;-65
2023/06/16 10:29:38;;;;;;;;;;;;;;;30.39;45.57;99213.97;5012087;28;1085;-65
2023/06/16 10:32:06;;;;;;;;;;;;;;;30.84;45.04;99210.75;5012212;28;1063;-66
2023/06/16 10:34:35;;;;;;;;;;;;;;;31.08;44.36;99221.03;5012152;28;827;-64
2023/06/16 10:40:05;;;;;;;;;;;;;;;31.39;43.43;99220.44;5012171;28;664;-66
2023/06/16 10:42:35;;;;;;;;;;;;;;;30.70;43.23;99221.50;5011990;28;826;-67
2023/06/16 10:45:20;;;;;;;;;;;;;;;30.23;45.38;99225.16;5012059;28;1906;-67
2023/06/16 10:48:01;;;;;;;;;;;;;;;30.44;45.76;99213.81;5011985;28;859;-65
2023/06/16 10:50:40;;;;;;;;;;;;;;;30.58;44.54;99225.94;5011930;28;815;-64
2023/06/16 10:53:11;;;;;;;;;;;;;;;30.38;44.91;99227.44;5011906;28;814;-65
2023/06/16 10:58:51;;;;;;;;;;;;;;;30.58;44.88;99223.09;5011921;28;629;-65
2023/06/16 11:01:24;;;;;;;;;;;;;;;30.98;43.98;99220.00;5011075;28;838;-64
2023/06/16 11:04:01;;;;;;;;;;;;;;;30.92;42.40;99225.09;5011753;28;830;-67
2023/06/16 11:06:28;;;;;;;;;;;;;;;30.79;42.04;99223.06;5011719;28;1996;-66
2023/06/16 11:12:01;;;;;;;;;;;;;;;30.65;42.47;99219.53;5011685;28;1207;-65
2023/06/16 11:17:31;;;;;;;;;;;;;;;31.21;41.59;99196.56;5011676;28;617;-66
2023/06/16 11:23:03;;;;;;;;;;;;;;;30.46;42.81;99205.47;5011676;28;625;-67
2023/06/16 11:25:30;;;;;;;;;;;;;;;29.66;43.41;99187.84;5012064;28;1981;-65
2023/06/16 11:27:57;;;;;;;;;;;;;;;29.20;44.52;99185.19;5011789;28;846;-67
2023/06/16 11:30:24;;;;;;;;;;;;;;;29.33;44.06;99180.78;5011708;28;795;-65
2023/06/16 11:32:51;;;;;;;;;;;;;;;29.39;44.02;99175.75;5012016;28;799;-66
2023/06/16 11:35:18;;;;;;;;;;;;;;;29.10;43.21;99176.31;5011885;28;827;-65
2023/06/16 11:37:57;;;;;;;;;;;;;;;28.49;44.11;99166.81;5011820;28;857;-66
2023/06/16 11:46:32;;;;;;;;;;;;;;;28.52;45.10;99150.75;5011587;28;1871;-67
2023/06/16 11:49:00;;;;;;;;;;;;;;;28.43;45.93;99143.38;4993702;28;1184;-67
2023/06/16 11:51:27;;;;;;;;;;;;;;;28.67;45.00;99131.84;5011463;28;870;-66
2023/06/16 11:53:54;;;;;;;;;;;;;;;28.86;44.71;99125.31;5011338;28;792;-66
2023/06/16 12:02:27;;;;;;;;;;;;;;;30.71;41.37;99134.59;5011331;28;610;-65
2023/06/16 12:04:53;;;;;;;;;;;;;;;30.72;40.88;99133.25;4993551;28;1955;-68
2023/06/16 12:07:20;;;;;;;;;;;;;;;30.47;40.46;99129.25;5011284;28;830;-66
2023/06/16 12:09:47;;;;;;;;;;;;;;;30.17;41.10;99113.44;5011091;28;1028;-65
2023/06/16 12:12:13;;;;;;;;;;;;;;;30.09;41.70;99109.75;5012899;28;1376;-66
2023/06/16 12:14:41;;;;;;;;;;;;;;;30.00;42.08;99105.28;5014696;28;881;-65
2023/06/16 12:17:08;;;;;;;;;;;;;;;29.58;42.07;99101.59;5014649;28;838;-66
2023/06/16 12:19:35;;;;;;;;;;;;;;;29.05;43.00;99103.19;5014887;28;863;-66
2023/06/16 12:25:17;;;;;;;;;;;;;;;28.41;45.04;99089.91;5014531;28;1989;-67
2023/06/16 12:27:44;;;;;;;;;;;;;;;28.17;45.24;99087.25;5014382;28;866;-68
2023/06/16 12:30:12;;;;;;;;;;;;;;;27.95;46.12;99072.09;5014390;28;893;-66
2023/06/16 12:32:39;;;;;;;;;;;;;;;27.51;46.68;99080.00;5014490;28;1000;-65
2023/06/16 12:35:06;;;;;;;;;;;;;;;27.18;47.20;99070.59;5014284;28;1018;-66
2023/06/16 12:37:33;;;;;;;;;;;;;;;26.90;46.81;99062.44;5014261;28;854;-66
2023/06/16 12:40:06;;;;;;;;;;;;;;;26.60;47.35;99063.31;5014063;28;873;-66
2023/06/16 12:42:34;;;;;;;;;;;;;;;26.48;47.97;99062.66;5014235;28;838;-65
2023/06/16 12:45:02;;;;;;;;;;;;;;;26.40;48.75;99055.25;5014014;28;1894;-66
2023/06/16 12:47:30;;;;;;;;;;;;;;;26.40;48.95;99047.53;5014053;28;857;-65
2023/06/16 12:49:58;;;;;;;;;;;;;;;26.35;49.00;99059.69;5014011;28;799;-65
2023/06/16 12:52:25;;;;;;;;;;;;;;;26.11;49.01;99060.41;5014020;28;885;-64
2023/06/16 12:54:54;;;;;;;;;;;;;;;25.95;49.22;99062.09;5013870;28;882;-65
2023/06/16 12:57:22;;;;;;;;;;;;;;;25.91;49.82;99063.69;5013933;28;818;-64
2023/06/16 12:59:50;;;;;;;;;;;;;;;25.83;50.26;99069.88;4996271;28;1315;-66
2023/06/16 13:05:23;;;;;;;;;;;;;;;25.26;51.66;99051.72;5013734;28;1894;-64
2023/06/16 13:07:50;;;;;;;;;;;;;;;24.97;52.97;99045.44;5013840;28;937;-64
2023/06/16 13:10:16;;;;;;;;;;;;;;;24.53;54.51;99046.38;5013699;28;953;-66
2023/06/16 13:12:43;;;;;;;;;;;;;;;23.64;60.71;99043.81;5013359;28;1273;-65
2023/06/16 13:15:10;;;;;;;;;;;;;;;22.89;70.81;99042.56;5013650;28;796;-65
2023/06/16 13:17:37;;;;;;;;;;;;;;;22.15;79.36;99044.19;5013731;28;846;-65
2023/06/16 13:20:04;;;;;;;;;;;;;;;21.84;86.00;99042.16;5013447;28;835;-65
2023/06/16 13:28:40;;;;;;;;;;;;;;;24.19;74.00;99049.22;5013371;28;637;-65
2023/06/16 13:31:07;;;;;;;;;;;;;;;24.30;74.28;99051.25;5013242;28;815;-65
2023/06/16 13:33:34;;;;;;;;;;;;;;;24.88;72.31;99048.56;5013195;28;882;-65
2023/06/16 13:36:01;;;;;;;;;;;;;;;25.32;68.64;99058.13;5013123;28;803;-65
2023/06/16 13:38:28;;;;;;;;;;;;;;;25.67;66.40;99048.91;5012935;28;863;-65
2023/06/16 13:40:55;;;;;;;;;;;;;;;25.89;63.08;99044.41;5013118;28;874;-66
2023/06/16 13:43:22;;;;;;;;;;;;;;;26.28;61.69;99046.09;5012940;28;917;-66
2023/06/16 13:48:52;;;;;;;;;;;;;;;27.05;58.37;99045.75;5012972;28;649;-65
2023/06/16 13:54:21;;;;;;;;;;;;;;;28.80;52.90;99039.34;5012899;28;625;-65
2023/06/16 13:56:49;;;;;;;;;;;;;;;29.71;50.13;99030.38;5012796;28;846;-66
2023/06/16 13:59:16;;;;;;;;;;;;;;;30.69;47.48;99028.88;5013020;28;806;-68
2023/06/16 14:01:43;;;;;;;;;;;;;;;30.78;45.25;99029.69;5012734;28;846;-65
2023/06/16 14:04:10;;;;;;;;;;;;;;;30.93;45.75;99021.22;5012693;28;861;-66
2023/06/16 14:06:36;;;;;;;;;;;;;;;31.03;44.96;99022.22;5012558;28;1961;-65
2023/06/16 14:09:03;;;;;;;;;;;;;;;30.62;44.80;99023.91;5012636;28;866;-67
2023/06/16 14:11:30;;;;;;;;;;;;;;;30.14;45.71;99017.66;5012509;28;1332;-65
2023/06/16 14:17:00;;;;;;;;;;;;;;;29.42;46.58;99001.78;5012755;28;652;-67
2023/06/16 14:19:27;;;;;;;;;;;;;;;29.32;46.80;99003.59;5012683;28;867;-66
2023/06/16 14:24:56;;;;;;;;;;;;;;;28.28;47.64;98996.91;5012305;28;1982;-65
2023/06/16 14:27:23;;;;;;;;;;;;;;;28.17;48.26;98988.59;5012283;28;791;-64
2023/06/16 14:29:48;;;;;;;;;;;;;;;28.19;48.10;98988.06;5012396;28;823;-65
2023/06/16 14:35:17;;;;;;;;;;;;;;;28.46;46.61;98983.13;5012150;28;679;-65
2023/06/16 14:40:47;;;;;;;;;;;;;;;28.45;44.88;98971.00;5012507;28;612;-65
2023/06/16 14:43:13;;;;;;;;;;;;;;;28.69;43.54;98964.34;5011961;28;880;-66
2023/06/16 14:45:40;;;;;;;;;;;;;;;28.98;43.61;98973.03;5012049;28;1976;-67